Coats, Kansas
Current Conditions -  °F | °C
As of 6:35 PM on Saturday 25 Oct 2014 (Local Time) from KPTT Reporting Station
Clear Clear  
Wind Chill: 79°   Ceiling: Unl
Heat Index: 79°   Visibility: 10mi
Dew Point: 52°   Wind: 9mph
Humidity: 39%   Direction: 150°SSE
Pressure: 30"   Gusts: NA
Location:  37.51°N, 98.82°W
Report Text: KPTT 252335Z AUTO 15008KT 10SM CLR 26/11 A3000 RMK AO2
Loading
Personal Weather Stations






























Interactive Weather Map
Tropical Storm Tracking
New forecast layout! Learn more

10-Day Weather Forecast

Advertisements
Track Severe Weather on mobile